createdAt,value
2018-12-05T00:00:35.452Z,0
2018-12-05T00:01:35.856Z,0
2018-12-05T00:02:36.537Z,0
2018-12-05T00:03:37.496Z,0
2018-12-05T00:04:37.997Z,0
2018-12-05T00:05:38.680Z,0
2018-12-05T00:06:39.364Z,0
2018-12-05T00:07:39.774Z,0
2018-12-05T00:08:40.453Z,0
2018-12-05T00:09:40.593Z,0
2018-12-05T00:10:42.277Z,0
2018-12-05T00:11:42.682Z,0
2018-12-05T00:12:44.085Z,0
2018-12-05T00:13:44.489Z,0
2018-12-05T00:14:45.172Z,0
2018-12-05T00:15:45.578Z,0
2018-12-05T00:16:46.535Z,0
2018-12-05T00:17:46.342Z,0
2018-12-05T00:18:48.023Z,0
2018-12-05T00:19:48.424Z,0
2018-12-05T00:20:49.600Z,0
2018-12-05T00:21:50.035Z,0
2018-12-05T00:22:50.438Z,0
2018-12-05T00:23:52.120Z,0
2018-12-05T00:24:52.804Z,0
2018-12-05T00:25:53.552Z,0
2018-12-05T00:26:53.950Z,0
2018-12-05T00:27:55.062Z,0
2018-12-05T00:28:56.745Z,0
2018-12-05T00:29:56.705Z,0
2018-12-05T00:30:57.662Z,0
2018-12-05T00:31:58.345Z,0
2018-12-05T00:32:58.472Z,0
2018-12-05T00:33:58.877Z,0
2018-12-05T00:34:59.853Z,0
2018-12-05T00:35:59.979Z,0
2018-12-05T00:37:01.387Z,0
2018-12-05T00:38:01.766Z,0
2018-12-05T00:39:02.445Z,0
2018-12-05T00:40:02.852Z,0
2018-12-05T00:41:03.810Z,0
2018-12-05T00:42:04.213Z,0
2018-12-05T00:43:05.178Z,0
2018-12-05T00:44:05.873Z,0
2018-12-05T00:45:06.555Z,0
2018-12-05T00:46:07.518Z,0
2018-12-05T00:47:07.477Z,0
2018-12-05T00:48:08.307Z,0
2018-12-05T00:49:09.711Z,0
2018-12-05T00:50:10.112Z,0
2018-12-05T00:51:10.520Z,0
2018-12-05T00:52:10.920Z,0
2018-12-05T00:53:12.161Z,0
2018-12-05T00:54:12.282Z,0
2018-12-05T00:55:13.686Z,0
2018-12-05T00:56:14.088Z,0
2018-12-05T00:57:14.771Z,0
2018-12-05T00:58:15.577Z,0
2018-12-05T00:59:16.262Z,0
2018-12-05T01:00:16.666Z,0
2018-12-05T01:01:17.349Z,0
2018-12-05T01:02:17.825Z,0
2018-12-05T01:03:19.059Z,0
2018-12-05T01:04:19.462Z,0
2018-12-05T01:05:20.590Z,0
2018-12-05T01:06:21.996Z,0
2018-12-05T01:07:22.681Z,0
2018-12-05T01:08:23.485Z,0
2018-12-05T01:09:23.612Z,0
2018-12-05T01:10:25.015Z,0
2018-12-05T01:11:25.695Z,0
2018-12-05T01:12:26.650Z,0
2018-12-05T01:13:26.779Z,0
2018-12-05T01:15:29.047Z,0
2018-12-05T01:16:29.175Z,0
2018-12-05T01:17:30.173Z,0
2018-12-05T01:18:30.734Z,0
2018-12-05T01:19:32.142Z,0
2018-12-05T01:20:32.548Z,0
2018-12-05T01:21:33.229Z,0
2018-12-05T01:22:34.189Z,0
2018-12-05T01:23:33.873Z,0
2018-12-05T01:24:34.835Z,0
2018-12-05T01:25:34.961Z,0
2018-12-05T01:26:35.645Z,0
2018-12-05T01:27:35.775Z,0
2018-12-05T01:28:37.155Z,0
2018-12-05T01:29:37.842Z,0
2018-12-05T01:30:38.248Z,0
2018-12-05T01:31:38.375Z,0
2018-12-05T01:32:39.616Z,0
2018-12-05T01:33:39.742Z,0
2018-12-05T01:34:41.150Z,0
2018-12-05T01:35:41.560Z,0
2018-12-05T01:36:42.518Z,0
2018-12-05T01:37:43.490Z,0
2018-12-05T01:38:44.289Z,0
2018-12-05T01:39:44.972Z,0
2018-12-05T01:40:45.096Z,0
2018-12-05T01:41:46.501Z,0
2018-12-05T01:42:47.185Z,0
2018-12-05T01:43:47.594Z,0
2018-12-05T01:44:48.826Z,0
2018-12-05T01:45:49.227Z,0
2018-12-05T01:46:49.636Z,0
2018-12-05T01:47:50.044Z,0
2018-12-05T01:48:51.703Z,0
2018-12-05T01:49:52.109Z,0
2018-12-05T01:50:52.513Z,0
2018-12-05T01:51:53.194Z,0
2018-12-05T01:52:53.877Z,0
2018-12-05T01:53:54.282Z,0
2018-12-05T01:54:54.687Z,0
2018-12-05T01:55:55.371Z,0
2018-12-05T01:56:56.500Z,0
2018-12-05T01:57:56.907Z,0
2018-12-05T01:58:58.290Z,0
2018-12-05T01:59:58.974Z,0
2018-12-05T02:00:59.381Z,0
2018-12-05T02:02:00.993Z,0
2018-12-05T02:03:01.392Z,0
2018-12-05T02:04:01.628Z,0
2018-12-05T02:05:01.842Z,0
2018-12-05T02:06:03.363Z,0
2018-12-05T02:07:04.343Z,0
2018-12-05T02:08:05.033Z,0
2018-12-05T02:09:05.849Z,0
2018-12-05T02:10:06.260Z,0
2018-12-05T02:11:06.667Z,0
2018-12-05T02:12:07.350Z,0
2018-12-05T02:13:07.822Z,0
2018-12-05T02:14:08.237Z,0
2018-12-05T02:15:08.923Z,0
2018-12-05T02:16:10.608Z,0
2018-12-05T02:17:11.015Z,0
2018-12-05T02:18:11.419Z,0
2018-12-05T02:19:12.514Z,0
2018-12-05T02:20:13.199Z,0
2018-12-05T02:21:13.606Z,0
2018-12-05T02:22:14.013Z,0
2018-12-05T02:23:14.697Z,0
2018-12-05T02:24:15.380Z,0
2018-12-05T02:25:16.066Z,0
2018-12-05T02:26:16.750Z,0
2018-12-05T02:27:18.157Z,0
2018-12-05T02:28:19.403Z,0
2018-12-05T02:29:19.952Z,0
2018-12-05T02:30:21.195Z,0
2018-12-05T02:31:21.229Z,0
2018-12-05T02:32:22.199Z,0
2018-12-05T02:33:22.755Z,0
2018-12-05T02:34:22.736Z,0
2018-12-05T02:35:22.697Z,0
2018-12-05T02:36:23.938Z,0
2018-12-05T02:37:23.899Z,0
2018-12-05T02:38:24.143Z,0
2018-12-05T02:39:25.824Z,0
2018-12-05T02:40:26.511Z,0
2018-12-05T02:41:27.307Z,0
2018-12-05T02:42:27.994Z,0
2018-12-05T02:43:28.680Z,0
2018-12-05T02:44:29.758Z,0
2018-12-05T02:45:31.276Z,0
2018-12-05T02:46:31.961Z,0
2018-12-05T02:47:32.643Z,0
2018-12-05T02:48:33.889Z,0
2018-12-05T02:49:33.737Z,0
2018-12-05T02:50:34.762Z,0
2018-12-05T02:51:36.320Z,0
2018-12-05T02:52:36.013Z,0
2018-12-05T02:53:36.426Z,0
2018-12-05T02:54:37.389Z,0
2018-12-05T02:55:37.625Z,0
2018-12-05T02:56:38.319Z,0
2018-12-05T02:57:39.361Z,0
2018-12-05T02:58:40.322Z,0
2018-12-05T02:59:40.445Z,0
2018-12-05T03:00:42.131Z,0
2018-12-05T03:01:42.899Z,0
2018-12-05T03:02:43.414Z,0
2018-12-05T03:03:44.405Z,0
2018-12-05T03:04:44.090Z,0
2018-12-05T03:05:45.789Z,0
2018-12-05T03:06:46.205Z,0
2018-12-05T03:07:47.459Z,0
2018-12-05T03:08:48.717Z,0
2018-12-05T03:09:49.885Z,0
2018-12-05T03:10:50.915Z,0
2018-12-05T03:11:50.878Z,0
2018-12-05T03:12:50.563Z,0
2018-12-05T03:13:51.533Z,0
2018-12-05T03:14:51.944Z,0
2018-12-05T03:15:52.627Z,0
2018-12-05T03:16:54.424Z,0
2018-12-05T03:17:53.833Z,0
2018-12-05T03:18:55.634Z,0
2018-12-05T03:19:55.731Z,0
2018-12-05T03:20:07.226Z,0
2018-12-05T03:21:08.889Z,0
2018-12-05T03:22:08.849Z,0
2018-12-05T03:23:10.092Z,0
2018-12-05T03:24:09.790Z,0
2018-12-05T03:25:11.035Z,0
2018-12-05T03:26:12.007Z,0
2018-12-05T03:27:12.416Z,0
2018-12-05T03:28:13.388Z,0
2018-12-05T03:29:14.691Z,0
2018-12-05T03:30:15.981Z,0
2018-12-05T03:31:17.278Z,0
2018-12-05T03:32:18.384Z,0
2018-12-05T03:33:18.986Z,0
2018-12-05T03:34:19.521Z,0
2018-12-05T03:35:20.508Z,0
2018-12-05T03:36:21.767Z,0
2018-12-05T03:37:22.240Z,0
2018-12-05T03:38:23.479Z,0
2018-12-05T03:39:24.445Z,0
2018-12-05T03:40:25.961Z,0
2018-12-05T03:41:26.453Z,0
2018-12-05T03:42:26.589Z,0
2018-12-05T03:43:28.280Z,0
2018-12-05T03:44:28.694Z,0
2018-12-05T03:45:31.937Z,0
2018-12-05T03:46:30.354Z,0
2018-12-05T03:47:31.039Z,0
2018-12-05T03:48:32.004Z,0
2018-12-05T03:49:32.716Z,0
2018-12-05T03:50:32.878Z,0
2018-12-05T03:51:33.527Z,0
2018-12-05T03:52:34.488Z,0
2018-12-05T03:53:35.453Z,0
2018-12-05T03:54:36.144Z,0
2018-12-05T03:55:37.411Z,0
2018-12-05T03:56:38.374Z,0
2018-12-05T03:57:39.616Z,0
2018-12-05T03:58:40.304Z,0
2018-12-05T03:59:40.990Z,0
2018-12-05T04:00:41.948Z,0
2018-12-05T04:01:43.058Z,0
2018-12-05T04:02:43.468Z,0
2018-12-05T04:03:43.875Z,0
2018-12-05T04:04:45.115Z,0
2018-12-05T04:05:45.819Z,0
2018-12-05T04:06:45.949Z,0
2018-12-05T04:07:47.469Z,0
2018-12-05T04:08:47.156Z,0
2018-12-05T04:09:48.120Z,0
2018-12-05T04:10:49.657Z,0
2018-12-05T04:11:50.081Z,0
2018-12-05T04:12:51.320Z,0
2018-12-05T04:13:52.586Z,0
2018-12-05T04:14:52.270Z,0
2018-12-05T04:15:53.802Z,0
2018-12-05T04:16:54.046Z,0
2018-12-05T04:17:53.730Z,0
2018-12-05T04:18:54.421Z,0
2018-12-05T04:19:55.663Z,0
2018-12-05T04:20:55.800Z,0
2018-12-05T04:21:57.193Z,0
2018-12-05T04:22:57.610Z,0
2018-12-05T04:23:58.296Z,0
2018-12-05T04:24:59.259Z,0
2018-12-05T04:25:59.940Z,0
2018-12-05T04:27:00.969Z,0
2018-12-05T04:28:02.219Z,0
2018-12-05T04:29:03.444Z,0
2018-12-05T04:30:04.132Z,0
2018-12-05T04:31:05.103Z,0
2018-12-05T04:32:06.797Z,0
2018-12-05T04:33:07.478Z,0
2018-12-05T04:34:08.753Z,0
2018-12-05T04:35:09.713Z,0
2018-12-05T04:36:10.675Z,0
2018-12-05T04:37:11.208Z,0
2018-12-05T04:38:11.625Z,0
2018-12-05T04:39:12.316Z,0
2018-12-05T04:40:13.558Z,4
2018-12-05T04:41:14.076Z,0
2018-12-05T04:42:14.267Z,0
2018-12-05T04:43:15.228Z,0
2018-12-05T04:44:15.636Z,0
2018-12-05T04:45:16.322Z,0
2018-12-05T04:46:17.291Z,0
2018-12-05T04:47:17.705Z,0
2018-12-05T04:48:18.680Z,0
2018-12-05T04:49:19.368Z,0
2018-12-05T04:50:20.056Z,0
2018-12-05T04:51:21.044Z,0
2018-12-05T04:52:21.264Z,0
2018-12-05T04:53:21.790Z,0
2018-12-05T04:54:21.761Z,0
2018-12-05T04:55:22.854Z,0
2018-12-05T04:56:23.540Z,0
2018-12-05T04:57:24.504Z,0
2018-12-05T04:58:25.473Z,0
2018-12-05T04:59:25.466Z,0
2018-12-05T05:00:26.875Z,0
2018-12-05T05:01:27.840Z,0
2018-12-05T05:02:28.687Z,0
2018-12-05T05:03:29.220Z,0
2018-12-05T05:04:30.749Z,0
2018-12-05T05:05:30.429Z,0
2018-12-05T05:06:31.669Z,0
2018-12-05T05:07:32.355Z,0
2018-12-05T05:08:32.488Z,0
2018-12-05T05:09:33.769Z,0
2018-12-05T05:10:34.313Z,0
2018-12-05T05:11:33.723Z,0
2018-12-05T05:12:34.957Z,0
2018-12-05T05:13:36.196Z,0
2018-12-05T05:14:36.163Z,0
2018-12-05T05:15:37.307Z,0
2018-12-05T05:16:38.550Z,0
2018-12-05T05:17:38.240Z,0
2018-12-05T05:18:40.038Z,0
2018-12-05T05:19:40.003Z,0
2018-12-05T05:20:40.129Z,0
2018-12-05T05:21:41.092Z,0
2018-12-05T05:22:42.775Z,0
2018-12-05T05:23:43.461Z,0
2018-12-05T05:24:43.978Z,0
2018-12-05T05:25:44.663Z,0
2018-12-05T05:26:44.794Z,0
2018-12-05T05:27:48.006Z,0
2018-12-05T05:28:48.415Z,0
2018-12-05T05:29:48.821Z,0
2018-12-05T05:30:50.225Z,0
2018-12-05T05:31:50.632Z,0
2018-12-05T05:32:52.009Z,0
2018-12-05T05:33:53.088Z,0
2018-12-05T05:34:52.775Z,0
2018-12-05T05:35:53.738Z,0
2018-12-05T05:36:53.700Z,0
2018-12-05T05:37:54.383Z,0
2018-12-05T05:38:54.790Z,0
2018-12-05T05:39:55.753Z,0
2018-12-05T05:40:56.445Z,0
2018-12-05T05:41:57.448Z,0
2018-12-05T05:42:57.838Z,0
2018-12-05T05:43:58.968Z,0
2018-12-05T05:45:00.107Z,0
2018-12-05T05:46:01.069Z,0
2018-12-05T05:47:01.031Z,0
2018-12-05T05:48:01.491Z,0
2018-12-05T05:49:02.786Z,0
2018-12-05T05:50:02.746Z,0
2018-12-05T05:51:03.155Z,0
2018-12-05T05:52:04.115Z,0
2018-12-05T05:53:04.848Z,0
2018-12-05T05:54:06.093Z,0
2018-12-05T05:55:06.501Z,0
2018-12-05T05:56:07.183Z,0
2018-12-05T05:57:07.869Z,0
2018-12-05T05:58:07.998Z,0
2018-12-05T05:59:09.237Z,0
2018-12-05T06:00:09.926Z,0
2018-12-05T06:01:10.339Z,0
2018-12-05T06:02:10.746Z,0
2018-12-05T06:03:12.151Z,0
2018-12-05T06:04:12.558Z,0
2018-12-05T06:05:13.243Z,0
2018-12-05T06:06:14.567Z,0
2018-12-05T06:07:13.980Z,0
2018-12-05T06:08:14.941Z,0
2018-12-05T06:09:15.347Z,0
2018-12-05T06:10:16.765Z,0
2018-12-05T06:11:18.450Z,0
2018-12-05T06:12:18.856Z,0
2018-12-05T06:13:20.250Z,0
2018-12-05T06:14:21.254Z,0
2018-12-05T06:15:21.935Z,0
2018-12-05T06:16:22.964Z,0
2018-12-05T06:17:22.374Z,0
2018-12-05T06:18:24.062Z,0
2018-12-05T06:19:24.466Z,4
2018-12-05T06:20:25.148Z,4
2018-12-05T06:21:26.116Z,0
2018-12-05T06:22:26.638Z,0
2018-12-05T06:23:27.464Z,4
2018-12-05T06:24:27.590Z,4
2018-12-05T06:25:27.998Z,0
2018-12-05T06:26:28.972Z,4
2018-12-05T06:27:29.662Z,4
2018-12-05T06:28:31.095Z,4
2018-12-05T06:29:31.781Z,8
2018-12-05T06:30:32.191Z,4
2018-12-05T06:31:33.601Z,8
2018-12-05T06:32:33.730Z,8
2018-12-05T06:33:35.138Z,8
2018-12-05T06:34:35.835Z,12
2018-12-05T06:35:37.070Z,8
2018-12-05T06:36:37.037Z,12
2018-12-05T06:37:37.171Z,12
2018-12-05T06:38:37.863Z,16
2018-12-05T06:39:38.547Z,12
2018-12-05T06:40:39.800Z,16
2018-12-05T06:41:39.486Z,20
2018-12-05T06:42:39.617Z,16
2018-12-05T06:43:40.726Z,20
2018-12-05T06:44:41.501Z,20
2018-12-05T06:45:41.908Z,20
2018-12-05T06:46:42.318Z,24
2018-12-05T06:47:43.449Z,24
2018-12-05T06:48:43.864Z,28
2018-12-05T06:49:44.828Z,28
2018-12-05T06:50:44.957Z,28
2018-12-05T06:51:46.208Z,32
2018-12-05T06:52:46.621Z,32
2018-12-05T06:53:47.746Z,36
2018-12-05T06:54:48.208Z,40
2018-12-05T06:55:49.449Z,40
2018-12-05T06:56:50.134Z,40
2018-12-05T06:57:50.821Z,44
2018-12-05T06:58:51.797Z,44
2018-12-05T06:59:51.200Z,44
2018-12-05T07:00:52.608Z,44
2018-12-05T07:01:53.014Z,48
2018-12-05T07:02:53.990Z,48
2018-12-05T07:03:55.096Z,52
2018-12-05T07:04:56.059Z,56
2018-12-05T07:05:57.021Z,56
2018-12-05T07:06:57.432Z,60
2018-12-05T07:07:57.843Z,68
2018-12-05T07:08:57.972Z,68
2018-12-05T07:09:58.379Z,72
2018-12-05T07:10:59.340Z,76
2018-12-05T07:11:59.471Z,84
2018-12-05T07:13:00.878Z,88
2018-12-05T07:14:01.429Z,92
2018-12-05T07:15:02.670Z,96
2018-12-05T07:16:03.081Z,96
2018-12-05T07:17:03.768Z,100
2018-12-05T07:18:04.731Z,104
2018-12-05T07:19:04.863Z,108
2018-12-05T07:20:05.558Z,112
2018-12-05T07:21:07.073Z,120
2018-12-05T07:22:06.757Z,124
2018-12-05T07:23:06.893Z,136
2018-12-05T07:24:09.768Z,140
2018-12-05T07:25:08.198Z,148
2018-12-05T07:26:09.442Z,156
2018-12-05T07:27:10.132Z,172
2018-12-05T07:28:10.823Z,184
2018-12-05T07:29:11.233Z,192
2018-12-05T07:30:12.926Z,204
2018-12-05T07:31:13.617Z,212
2018-12-05T07:32:14.391Z,220
2018-12-05T07:33:14.802Z,228
2018-12-05T07:34:15.776Z,248
2018-12-05T07:35:16.474Z,260
2018-12-05T07:36:16.884Z,272
2018-12-05T07:37:17.853Z,280
2018-12-05T07:38:21.294Z,280
2018-12-05T07:39:22.540Z,280
2018-12-05T07:40:22.951Z,288
2018-12-05T07:41:23.711Z,292
2018-12-05T07:42:24.451Z,284
2018-12-05T07:43:26.047Z,268
2018-12-05T07:44:26.700Z,256
2018-12-05T07:45:27.424Z,248
2018-12-05T07:46:27.833Z,240
2018-12-05T07:47:28.243Z,236
2018-12-05T07:48:28.930Z,240
2018-12-05T07:49:29.615Z,268
2018-12-05T07:50:31.304Z,304
2018-12-05T07:51:32.267Z,352
2018-12-05T07:52:32.400Z,396
2018-12-05T07:53:33.810Z,424
2018-12-05T07:54:34.643Z,428
2018-12-05T07:55:35.051Z,424
2018-12-05T07:56:36.179Z,424
2018-12-05T07:57:38.354Z,436
2018-12-05T07:58:37.491Z,444
2018-12-05T07:59:38.458Z,440
2018-12-05T08:00:38.886Z,440
2018-12-05T08:01:39.853Z,436
2018-12-05T08:02:41.178Z,440
2018-12-05T08:03:41.592Z,448
2018-12-05T08:04:42.131Z,460
2018-12-05T08:05:43.548Z,480
2018-12-05T08:06:43.958Z,496
2018-12-05T08:07:45.922Z,508
2018-12-05T08:08:46.332Z,516
2018-12-05T08:09:47.025Z,532
2018-12-05T08:10:47.991Z,552
2018-12-05T08:11:49.068Z,560
2018-12-05T08:12:49.591Z,548
2018-12-05T08:13:50.560Z,540
2018-12-05T08:14:51.094Z,528
2018-12-05T08:15:51.782Z,508
2018-12-05T08:16:52.800Z,496
2018-12-05T08:17:52.766Z,496
2018-12-05T08:18:52.898Z,488
2018-12-05T08:19:54.035Z,480
2018-12-05T08:20:55.441Z,468
2018-12-05T08:22:01.830Z,464
2018-12-05T08:22:09.987Z,464
2018-12-05T08:23:07.643Z,460
2018-12-05T08:24:08.152Z,464
2018-12-05T08:25:08.564Z,480
2018-12-05T08:26:09.982Z,488
2018-12-05T08:27:10.947Z,500
2018-12-05T08:28:11.193Z,516
2018-12-05T08:29:11.331Z,540
2018-12-05T08:30:12.025Z,560
2018-12-05T08:31:12.431Z,580
2018-12-05T08:32:13.141Z,596
2018-12-05T08:33:13.987Z,600
2018-12-05T08:34:15.397Z,604
2018-12-05T08:35:16.525Z,612
2018-12-05T08:36:19.863Z,628
2018-12-05T08:37:19.552Z,644
2018-12-05T08:38:20.516Z,664
2018-12-05T08:39:20.648Z,692
2018-12-05T08:40:23.936Z,716
2018-12-05T08:40:39.011Z,716
2018-12-05T08:40:51.223Z,720
2018-12-05T08:41:02.924Z,724
2018-12-05T08:41:58.489Z,740
2018-12-05T08:42:59.181Z,740
2018-12-05T08:44:00.148Z,748
2018-12-05T08:45:01.122Z,760
2018-12-05T08:46:01.527Z,764
2018-12-05T08:47:03.219Z,772
2018-12-05T08:48:03.913Z,776
2018-12-05T08:49:04.608Z,776
2018-12-05T08:50:05.098Z,784
2018-12-05T08:51:05.795Z,800
2018-12-05T08:52:05.900Z,824
2018-12-05T08:53:06.866Z,860
2018-12-05T08:54:07.280Z,900
2018-12-05T08:55:08.524Z,936
2018-12-05T08:56:09.741Z,980
2018-12-05T08:57:12.800Z,1000
2018-12-05T08:58:11.056Z,988
2018-12-05T08:59:16.992Z,980
2018-12-05T08:59:23.675Z,980
2018-12-05T09:00:23.523Z,1012
2018-12-05T09:01:23.954Z,1040
2018-12-05T09:02:24.525Z,1064
2018-12-05T09:03:26.223Z,1072
2018-12-05T09:04:26.635Z,1080
2018-12-05T09:05:32.550Z,1124
2018-12-05T09:05:43.941Z,1132
2018-12-05T09:05:53.499Z,1144
2018-12-05T09:06:52.017Z,1184
2018-12-05T09:07:52.434Z,1220
2018-12-05T09:08:53.851Z,1228
2018-12-05T09:09:54.541Z,1224
2018-12-05T09:10:56.239Z,1212
2018-12-05T09:11:56.930Z,1204
2018-12-05T09:12:57.209Z,1196
2018-12-05T09:13:57.624Z,1220
2018-12-05T09:14:59.043Z,1212
2018-12-05T09:15:59.453Z,1200
2018-12-05T09:16:59.905Z,1172
2018-12-05T09:18:00.866Z,1132
2018-12-05T09:19:01.278Z,1132
2018-12-05T09:20:01.970Z,1156
2018-12-05T09:21:02.794Z,1188
2018-12-05T09:22:03.207Z,1220
2018-12-05T09:23:04.193Z,1240
2018-12-05T09:24:04.605Z,1264
2018-12-05T09:25:11.950Z,1320
2018-12-05T09:25:18.672Z,1324
2018-12-05T09:26:20.673Z,1368
2018-12-05T09:27:27.182Z,1392
2018-12-05T09:27:34.858Z,1400
2018-12-05T09:28:36.579Z,1416
2018-12-05T09:29:38.786Z,1424
2018-12-05T09:30:37.254Z,1440
2018-12-05T09:31:38.222Z,1472
2018-12-05T09:32:38.921Z,1520
2018-12-05T09:33:39.330Z,1548
2018-12-05T09:34:40.032Z,1568
2018-12-05T09:35:40.998Z,1544
2018-12-05T09:36:42.007Z,1520
2018-12-05T09:37:43.251Z,1504
2018-12-05T09:38:43.358Z,1492
2018-12-05T09:39:44.324Z,1476
2018-12-05T09:40:45.012Z,1472
2018-12-05T09:41:45.981Z,1472
2018-12-05T09:42:46.118Z,1500
2018-12-05T09:43:47.255Z,1524
2018-12-05T09:44:47.956Z,1504
2018-12-05T09:45:48.936Z,1476
2018-12-05T09:46:49.710Z,1452
2018-12-05T09:47:49.849Z,1436
2018-12-05T09:48:50.471Z,1428
2018-12-05T09:49:51.761Z,1416
2018-12-05T09:50:51.454Z,1412
2018-12-05T09:51:52.592Z,1408
2018-12-05T09:52:53.560Z,1388
2018-12-05T09:53:54.300Z,1368
2018-12-05T09:54:54.991Z,1352
2018-12-05T09:55:57.424Z,1316
2018-12-05T09:56:55.383Z,1288
2018-12-05T09:57:56.070Z,1256
2018-12-05T09:58:57.240Z,1232
2018-12-05T09:59:57.375Z,1216
2018-12-05T10:00:58.063Z,1188
2018-12-05T10:01:59.312Z,1168
2018-12-05T10:02:59.005Z,1156
2018-12-05T10:03:59.138Z,1160
2018-12-05T10:05:00.272Z,1160
2018-12-05T10:06:01.449Z,1148
2018-12-05T10:07:01.868Z,1136
2018-12-05T10:08:02.559Z,1132
2018-12-05T10:09:03.383Z,1128
2018-12-05T10:10:04.350Z,1132
2018-12-05T10:11:04.760Z,1144
2018-12-05T10:12:05.506Z,1160
2018-12-05T10:13:06.475Z,1176
2018-12-05T10:14:07.196Z,1188
2018-12-05T10:15:07.883Z,1196
2018-12-05T10:16:12.972Z,1196
2018-12-05T10:16:24.128Z,1196
2018-12-05T10:16:34.726Z,1192
2018-12-05T10:17:35.688Z,1188
2018-12-05T10:18:34.982Z,1192
2018-12-05T10:19:35.392Z,1200
2018-12-05T10:20:37.080Z,1216
2018-12-05T10:21:37.500Z,1236
2018-12-05T10:22:37.915Z,1264
2018-12-05T10:23:38.606Z,1276
2018-12-05T10:24:39.645Z,1284
2018-12-05T10:25:40.053Z,1292
2018-12-05T10:26:44.099Z,1304
2018-12-05T10:26:53.783Z,1304
2018-12-05T10:27:54.282Z,1336
2018-12-05T10:28:54.698Z,1380
2018-12-05T10:29:55.110Z,1428
2018-12-05T10:31:01.364Z,1492
2018-12-05T10:31:11.330Z,1500
2018-12-05T10:32:10.528Z,1568
2018-12-05T10:33:09.951Z,1636
2018-12-05T10:34:10.362Z,1708
2018-12-05T10:35:10.439Z,1792
2018-12-05T10:36:11.418Z,1888
2018-12-05T10:37:17.555Z,2004
2018-12-05T10:37:23.272Z,2016
2018-12-05T10:38:23.364Z,2112
2018-12-05T10:39:26.212Z,2212
2018-12-05T10:40:24.986Z,2324
2018-12-05T10:41:25.678Z,2480
2018-12-05T10:42:26.813Z,2656
2018-12-05T10:43:28.503Z,2988
2018-12-05T10:44:28.640Z,3020
2018-12-05T10:45:30.061Z,3008
2018-12-05T10:46:30.752Z,2920
2018-12-05T10:47:31.163Z,2744
2018-12-05T10:48:32.272Z,2536
2018-12-05T10:49:32.687Z,2368
2018-12-05T10:50:34.424Z,2216
2018-12-05T10:51:35.425Z,2080
2018-12-05T10:52:36.127Z,1952
2018-12-05T10:53:36.826Z,1844
2018-12-05T10:54:37.239Z,1736
2018-12-05T10:55:38.206Z,1624
2018-12-05T10:56:39.059Z,1556
2018-12-05T10:57:39.475Z,1492
2018-12-05T10:58:40.018Z,1448
2018-12-05T10:59:40.988Z,1420
2018-12-05T11:00:41.397Z,1412
2018-12-05T11:01:42.537Z,1420
2018-12-05T11:02:43.236Z,1456
2018-12-05T11:03:44.376Z,1508
2018-12-05T11:04:45.512Z,1532
2018-12-05T11:05:46.480Z,1480
2018-12-05T11:06:46.453Z,1416
2018-12-05T11:07:47.584Z,1360
2018-12-05T11:08:48.961Z,1316
2018-12-05T11:09:49.929Z,1296
2018-12-05T11:10:50.619Z,1244
2018-12-05T11:11:50.864Z,1188
2018-12-05T11:12:51.283Z,1148
2018-12-05T11:13:52.253Z,1200
2018-12-05T11:14:52.390Z,1348
2018-12-05T11:15:53.354Z,1508
2018-12-05T11:16:54.612Z,1620
2018-12-05T11:17:55.315Z,1712
2018-12-05T11:18:56.636Z,1792
2018-12-05T11:19:57.612Z,1816
2018-12-05T11:20:57.749Z,1836
2018-12-05T11:21:59.146Z,1840
2018-12-05T11:22:59.228Z,1796
2018-12-05T11:23:59.373Z,1756
2018-12-05T11:25:01.295Z,1764
2018-12-05T11:26:01.535Z,1784
2018-12-05T11:27:03.939Z,1808
2018-12-05T11:28:09.558Z,1840
2018-12-05T11:28:18.722Z,1844
2018-12-05T11:29:16.344Z,1868
2018-12-05T11:30:17.035Z,1916
2018-12-05T11:31:17.728Z,1972
2018-12-05T11:32:19.142Z,2028
2018-12-05T11:33:20.181Z,2060
2018-12-05T11:34:21.435Z,2120
2018-12-05T11:35:20.848Z,2168
2018-12-05T11:36:22.261Z,2168
2018-12-05T11:37:23.951Z,2148
2018-12-05T11:38:24.642Z,2152
2018-12-05T11:39:25.596Z,2152
2018-12-05T11:40:25.557Z,2140
2018-12-05T11:41:26.843Z,2124
2018-12-05T11:42:27.541Z,2088
2018-12-05T11:43:27.957Z,2068
2018-12-05T11:44:28.651Z,2084
2018-12-05T11:45:29.066Z,2136
2018-12-05T11:46:36.505Z,2220
2018-12-05T11:46:44.445Z,2228
2018-12-05T11:46:54.850Z,2236
2018-12-05T11:47:54.112Z,2280
2018-12-05T11:48:54.806Z,2312
2018-12-05T11:49:55.219Z,2340
2018-12-05T11:50:57.493Z,2392
2018-12-05T11:51:58.193Z,2448
2018-12-05T11:52:58.611Z,2528
2018-12-05T11:53:59.303Z,2680
2018-12-05T11:54:59.717Z,2836
2018-12-05T11:56:01.691Z,2964
2018-12-05T11:57:02.383Z,3028
2018-12-05T11:58:03.477Z,3736
2018-12-05T11:59:04.444Z,4004
2018-12-05T12:00:05.132Z,3896
2018-12-05T12:01:05.546Z,3720
2018-12-05T12:02:07.248Z,4456
2018-12-05T12:03:07.941Z,3864
2018-12-05T12:04:08.635Z,3736
2018-12-05T12:05:09.324Z,3812
2018-12-05T12:06:09.744Z,3852
2018-12-05T12:07:10.129Z,3896
2018-12-05T12:08:11.236Z,3940
2018-12-05T12:09:11.653Z,4092
2018-12-05T12:10:12.634Z,4348
2018-12-05T12:11:13.051Z,3992
2018-12-05T12:12:13.779Z,3756
2018-12-05T12:13:14.468Z,3616
2018-12-05T12:14:15.441Z,3556
2018-12-05T12:15:19.965Z,3644
2018-12-05T12:16:21.743Z,3864
2018-12-05T12:16:32.710Z,3912
2018-12-05T12:17:32.862Z,4224
2018-12-05T12:17:46.697Z,4308
2018-12-05T12:17:55.941Z,4392
2018-12-05T12:18:54.415Z,4680
2018-12-05T12:19:55.177Z,4836
2018-12-05T12:20:56.172Z,4832
2018-12-05T12:21:56.598Z,4816
2018-12-05T12:23:03.061Z,4652
2018-12-05T12:23:11.941Z,4640
2018-12-05T12:24:10.631Z,4600
2018-12-05T12:25:10.362Z,4724
2018-12-05T12:26:12.905Z,4668
2018-12-05T12:27:15.057Z,4468
2018-12-05T12:28:16.185Z,4324
2018-12-05T12:29:15.429Z,4248
2018-12-05T12:30:19.522Z,4312
2018-12-05T12:31:19.120Z,4912
2018-12-05T12:32:19.537Z,5180
2018-12-05T12:33:19.679Z,5064
2018-12-05T12:34:21.115Z,5568
2018-12-05T12:35:22.997Z,5764
2018-12-05T12:36:22.650Z,5796
2018-12-05T12:37:23.068Z,5908
2018-12-05T12:38:24.549Z,5992
2018-12-05T12:39:24.962Z,5848
2018-12-05T12:40:25.379Z,5568
2018-12-05T12:41:26.359Z,5444
2018-12-05T12:42:27.051Z,7248
2018-12-05T12:43:28.019Z,6476
2018-12-05T12:44:28.299Z,13852
2018-12-05T12:45:29.552Z,5932
2018-12-05T12:46:30.520Z,4952
2018-12-05T12:47:30.934Z,4652
2018-12-05T12:48:32.625Z,4544
2018-12-05T12:49:38.351Z,4412
2018-12-05T12:49:44.429Z,4416
2018-12-05T12:50:45.878Z,4304
2018-12-05T12:51:46.402Z,4248
2018-12-05T12:52:52.407Z,4268
2018-12-05T12:53:03.920Z,4268
2018-12-05T12:53:16.301Z,4276
2018-12-05T12:53:26.003Z,4244
2018-12-05T12:54:26.666Z,4280
2018-12-05T12:55:26.893Z,4160
2018-12-05T12:56:28.702Z,4020
2018-12-05T12:57:30.392Z,3880
2018-12-05T12:58:31.431Z,3800
2018-12-05T12:59:31.680Z,3636
2018-12-05T13:00:32.373Z,3468
2018-12-05T13:01:32.791Z,3344
2018-12-05T13:02:33.287Z,3248
2018-12-05T13:03:34.421Z,3116
2018-12-05T13:04:34.966Z,2984
2018-12-05T13:05:36.382Z,2908
2018-12-05T13:06:36.795Z,2840
2018-12-05T13:07:37.499Z,2792
2018-12-05T13:08:37.643Z,2752
2018-12-05T13:09:38.771Z,2740
2018-12-05T13:10:39.468Z,2672
2018-12-05T13:11:40.171Z,2680
2018-12-05T13:12:41.307Z,2716
2018-12-05T13:13:42.278Z,2748
2018-12-05T13:14:43.226Z,2744
2018-12-05T13:15:43.920Z,2864
2018-12-05T13:16:44.614Z,3084
2018-12-05T13:17:45.030Z,3448
2018-12-05T13:18:45.450Z,4704
2018-12-05T13:19:46.136Z,4200
2018-12-05T13:20:46.121Z,8196
2018-12-05T13:21:47.096Z,7428
2018-12-05T13:22:47.509Z,4008
2018-12-05T13:23:47.651Z,3656
2018-12-05T13:24:47.932Z,3336
2018-12-05T13:25:49.069Z,3304
2018-12-05T13:26:50.786Z,3112
2018-12-05T13:27:51.733Z,3128
2018-12-05T13:28:52.703Z,3072
2018-12-05T13:29:52.840Z,2944
2018-12-05T13:30:53.979Z,2960
2018-12-05T13:31:54.673Z,3024
2018-12-05T13:32:56.644Z,3024
2018-12-05T13:33:57.335Z,3004
2018-12-05T13:34:58.440Z,3000
2018-12-05T13:35:59.135Z,2988
2018-12-05T13:37:04.051Z,2904
2018-12-05T13:38:01.464Z,2832
2018-12-05T13:39:07.073Z,2800
2018-12-05T13:39:18.201Z,2764
2018-12-05T13:39:30.441Z,2712
2018-12-05T13:39:41.287Z,2672
2018-12-05T13:40:39.221Z,2548
2018-12-05T13:41:39.913Z,2424
2018-12-05T13:42:40.887Z,2256
2018-12-05T13:43:41.346Z,2108
2018-12-05T13:44:42.733Z,2028
2018-12-05T13:45:42.703Z,1952
2018-12-05T13:46:43.952Z,1912
2018-12-05T13:47:44.093Z,1872
2018-12-05T13:48:45.340Z,1808
2018-12-05T13:49:44.760Z,1736
2018-12-05T13:50:45.036Z,1664
2018-12-05T13:51:46.731Z,1588